sensor_id;sensor_type;location;lat;lon;timestamp;P1;durP1;ratioP1;P2;durP2;ratioP2
313;SDS011;143;51.634;7.112;2024-03-08T00:00:40;37.28;;;21.45;;
313;SDS011;143;51.634;7.112;2024-03-08T00:03:07;34.95;;;22.45;;
313;SDS011;143;51.634;7.112;2024-03-08T00:05:35;35.42;;;21.77;;
313;SDS011;143;51.634;7.112;2024-03-08T00:08:01;39.95;;;21.45;;
313;SDS011;143;51.634;7.112;2024-03-08T00:10:27;35.47;;;22.10;;
313;SDS011;143;51.634;7.112;2024-03-08T00:12:53;38.17;;;22.17;;
313;SDS011;143;51.634;7.112;2024-03-08T00:15:19;35.33;;;21.80;;
313;SDS011;143;51.634;7.112;2024-03-08T00:17:47;30.83;;;19.50;;
313;SDS011;143;51.634;7.112;2024-03-08T00:20:13;38.33;;;22.80;;
313;SDS011;143;51.634;7.112;2024-03-08T00:22:39;37.10;;;20.97;;
313;SDS011;143;51.634;7.112;2024-03-08T00:25:05;37.90;;;22.10;;
313;SDS011;143;51.634;7.112;2024-03-08T00:27:33;37.63;;;22.48;;
313;SDS011;143;51.634;7.112;2024-03-08T00:29:59;39.77;;;25.17;;
313;SDS011;143;51.634;7.112;2024-03-08T00:32:25;39.05;;;23.08;;
313;SDS011;143;51.634;7.112;2024-03-08T00:34:52;37.17;;;22.98;;
313;SDS011;143;51.634;7.112;2024-03-08T00:37:21;36.05;;;22.80;;
313;SDS011;143;51.634;7.112;2024-03-08T00:39:47;35.87;;;24.33;;
313;SDS011;143;51.634;7.112;2024-03-08T00:42:16;40.35;;;25.63;;
313;SDS011;143;51.634;7.112;2024-03-08T00:44:45;35.78;;;23.25;;
313;SDS011;143;51.634;7.112;2024-03-08T00:47:10;41.43;;;22.53;;
313;SDS011;143;51.634;7.112;2024-03-08T00:49:36;39.70;;;23.07;;
313;SDS011;143;51.634;7.112;2024-03-08T00:52:03;36.38;;;22.63;;
313;SDS011;143;51.634;7.112;2024-03-08T00:54:32;35.28;;;20.88;;
313;SDS011;143;51.634;7.112;2024-03-08T00:56:57;41.67;;;24.10;;
313;SDS011;143;51.634;7.112;2024-03-08T00:59:23;37.23;;;23.67;;
313;SDS011;143;51.634;7.112;2024-03-08T01:01:49;41.17;;;24.10;;
313;SDS011;143;51.634;7.112;2024-03-08T01:04:14;42.33;;;24.90;;
313;SDS011;143;51.634;7.112;2024-03-08T01:06:40;41.20;;;22.10;;
313;SDS011;143;51.634;7.112;2024-03-08T01:09:05;36.97;;;21.93;;
313;SDS011;143;51.634;7.112;2024-03-08T01:11:34;35.50;;;22.02;;
313;SDS011;143;51.634;7.112;2024-03-08T01:13:59;40.50;;;23.43;;
313;SDS011;143;51.634;7.112;2024-03-08T01:16:25;41.87;;;23.80;;
313;SDS011;143;51.634;7.112;2024-03-08T01:18:51;36.00;;;23.23;;
313;SDS011;143;51.634;7.112;2024-03-08T01:21:16;41.20;;;24.97;;
313;SDS011;143;51.634;7.112;2024-03-08T01:23:42;37.80;;;24.80;;
313;SDS011;143;51.634;7.112;2024-03-08T01:26:07;36.77;;;23.67;;
313;SDS011;143;51.634;7.112;2024-03-08T01:28:33;43.40;;;26.10;;
313;SDS011;143;51.634;7.112;2024-03-08T01:30:59;42.45;;;23.88;;
313;SDS011;143;51.634;7.112;2024-03-08T01:33:25;43.50;;;25.93;;
313;SDS011;143;51.634;7.112;2024-03-08T01:35:52;43.30;;;24.58;;
313;SDS011;143;51.634;7.112;2024-03-08T01:38:21;43.15;;;25.08;;
313;SDS011;143;51.634;7.112;2024-03-08T01:40:47;41.17;;;24.95;;
313;SDS011;143;51.634;7.112;2024-03-08T01:43:19;43.42;;;25.70;;
313;SDS011;143;51.634;7.112;2024-03-08T01:45:46;41.33;;;24.52;;
313;SDS011;143;51.634;7.112;2024-03-08T01:48:13;40.80;;;25.00;;
313;SDS011;143;51.634;7.112;2024-03-08T01:50:39;40.00;;;25.75;;
313;SDS011;143;51.634;7.112;2024-03-08T01:53:06;42.07;;;25.00;;
313;SDS011;143;51.634;7.112;2024-03-08T01:55:33;42.45;;;25.60;;
313;SDS011;143;51.634;7.112;2024-03-08T01:58:00;42.97;;;24.70;;
313;SDS011;143;51.634;7.112;2024-03-08T02:00:28;42.05;;;26.40;;
313;SDS011;143;51.634;7.112;2024-03-08T02:02:55;43.83;;;23.70;;
313;SDS011;143;51.634;7.112;2024-03-08T02:05:22;44.45;;;26.58;;
313;SDS011;143;51.634;7.112;2024-03-08T02:07:48;41.83;;;26.95;;
313;SDS011;143;51.634;7.112;2024-03-08T02:10:14;40.33;;;26.00;;
313;SDS011;143;51.634;7.112;2024-03-08T02:12:39;60.97;;;26.30;;
313;SDS011;143;51.634;7.112;2024-03-08T02:15:05;42.53;;;25.37;;
313;SDS011;143;51.634;7.112;2024-03-08T02:17:31;39.63;;;25.53;;
313;SDS011;143;51.634;7.112;2024-03-08T02:19:58;40.65;;;26.10;;
313;SDS011;143;51.634;7.112;2024-03-08T02:22:30;41.50;;;25.52;;
313;SDS011;143;51.634;7.112;2024-03-08T02:24:57;40.58;;;27.63;;
313;SDS011;143;51.634;7.112;2024-03-08T02:27:27;37.65;;;24.35;;
313;SDS011;143;51.634;7.112;2024-03-08T02:29:55;42.13;;;26.85;;
313;SDS011;143;51.634;7.112;2024-03-08T02:32:22;47.80;;;26.48;;
313;SDS011;143;51.634;7.112;2024-03-08T02:34:48;44.15;;;26.45;;
313;SDS011;143;51.634;7.112;2024-03-08T02:37:14;45.67;;;25.98;;
313;SDS011;143;51.634;7.112;2024-03-08T02:39:40;45.97;;;26.73;;
313;SDS011;143;51.634;7.112;2024-03-08T02:42:06;39.43;;;24.27;;
313;SDS011;143;51.634;7.112;2024-03-08T02:44:32;45.23;;;25.63;;
313;SDS011;143;51.634;7.112;2024-03-08T02:46:58;43.33;;;26.90;;
313;SDS011;143;51.634;7.112;2024-03-08T02:49:24;42.30;;;27.40;;
313;SDS011;143;51.634;7.112;2024-03-08T02:51:51;42.13;;;25.92;;
313;SDS011;143;51.634;7.112;2024-03-08T02:54:17;43.10;;;27.40;;
313;SDS011;143;51.634;7.112;2024-03-08T02:56:44;45.65;;;25.92;;
313;SDS011;143;51.634;7.112;2024-03-08T02:59:11;46.55;;;28.08;;
313;SDS011;143;51.634;7.112;2024-03-08T03:01:37;43.58;;;26.13;;
313;SDS011;143;51.634;7.112;2024-03-08T03:04:03;45.27;;;26.77;;
313;SDS011;143;51.634;7.112;2024-03-08T03:06:29;44.57;;;28.00;;
313;SDS011;143;51.634;7.112;2024-03-08T03:08:54;45.83;;;27.90;;
313;SDS011;143;51.634;7.112;2024-03-08T03:11:22;50.22;;;28.20;;
313;SDS011;143;51.634;7.112;2024-03-08T03:13:48;40.90;;;26.53;;
313;SDS011;143;51.634;7.112;2024-03-08T03:16:17;47.40;;;28.07;;
313;SDS011;143;51.634;7.112;2024-03-08T03:18:44;44.38;;;25.20;;
313;SDS011;143;51.634;7.112;2024-03-08T03:21:10;43.83;;;27.20;;
313;SDS011;143;51.634;7.112;2024-03-08T03:23:37;44.70;;;27.52;;
313;SDS011;143;51.634;7.112;2024-03-08T03:26:04;39.10;;;26.27;;
313;SDS011;143;51.634;7.112;2024-03-08T03:28:32;42.60;;;27.35;;
313;SDS011;143;51.634;7.112;2024-03-08T03:30:58;49.80;;;30.27;;
313;SDS011;143;51.634;7.112;2024-03-08T03:33:24;38.40;;;24.33;;
313;SDS011;143;51.634;7.112;2024-03-08T03:35:50;47.30;;;26.95;;
313;SDS011;143;51.634;7.112;2024-03-08T03:38:16;49.45;;;29.13;;
313;SDS011;143;51.634;7.112;2024-03-08T03:40:42;47.40;;;28.13;;
313;SDS011;143;51.634;7.112;2024-03-08T03:43:10;40.00;;;26.02;;
313;SDS011;143;51.634;7.112;2024-03-08T03:45:36;38.53;;;24.80;;
313;SDS011;143;51.634;7.112;2024-03-08T03:48:05;41.33;;;26.10;;
313;SDS011;143;51.634;7.112;2024-03-08T03:50:32;44.63;;;26.67;;
313;SDS011;143;51.634;7.112;2024-03-08T03:53:00;43.25;;;26.80;;
313;SDS011;143;51.634;7.112;2024-03-08T03:55:27;44.55;;;28.00;;
313;SDS011;143;51.634;7.112;2024-03-08T03:57:53;42.67;;;27.20;;
313;SDS011;143;51.634;7.112;2024-03-08T04:00:19;44.50;;;27.47;;
313;SDS011;143;51.634;7.112;2024-03-08T04:02:44;49.13;;;26.83;;
313;SDS011;143;51.634;7.112;2024-03-08T04:05:11;48.97;;;29.23;;
313;SDS011;143;51.634;7.112;2024-03-08T04:07:37;45.93;;;27.30;;
313;SDS011;143;51.634;7.112;2024-03-08T04:10:04;44.30;;;27.55;;
313;SDS011;143;51.634;7.112;2024-03-08T04:12:32;45.72;;;27.58;;
313;SDS011;143;51.634;7.112;2024-03-08T04:14:58;44.42;;;27.30;;
313;SDS011;143;51.634;7.112;2024-03-08T04:17:23;46.67;;;27.37;;
313;SDS011;143;51.634;7.112;2024-03-08T04:19:49;47.00;;;26.83;;
313;SDS011;143;51.634;7.112;2024-03-08T04:22:15;47.80;;;28.93;;
313;SDS011;143;51.634;7.112;2024-03-08T04:24:41;44.03;;;27.52;;
313;SDS011;143;51.634;7.112;2024-03-08T04:27:07;52.27;;;26.33;;
313;SDS011;143;51.634;7.112;2024-03-08T04:29:32;47.43;;;29.57;;
313;SDS011;143;51.634;7.112;2024-03-08T04:31:59;43.42;;;26.90;;
313;SDS011;143;51.634;7.112;2024-03-08T04:34:25;44.70;;;26.15;;
313;SDS011;143;51.634;7.112;2024-03-08T04:36:53;47.90;;;30.02;;
313;SDS011;143;51.634;7.112;2024-03-08T04:39:19;43.07;;;27.50;;
313;SDS011;143;51.634;7.112;2024-03-08T04:41:46;46.17;;;29.63;;
313;SDS011;143;51.634;7.112;2024-03-08T04:44:12;45.10;;;29.23;;
313;SDS011;143;51.634;7.112;2024-03-08T04:46:37;44.80;;;27.10;;
313;SDS011;143;51.634;7.112;2024-03-08T04:49:03;47.20;;;29.27;;
313;SDS011;143;51.634;7.112;2024-03-08T04:51:29;45.70;;;27.33;;
313;SDS011;143;51.634;7.112;2024-03-08T04:53:54;48.77;;;27.27;;
313;SDS011;143;51.634;7.112;2024-03-08T04:56:20;52.53;;;30.03;;
313;SDS011;143;51.634;7.112;2024-03-08T04:58:46;51.10;;;28.95;;
313;SDS011;143;51.634;7.112;2024-03-08T05:01:12;41.70;;;27.27;;
313;SDS011;143;51.634;7.112;2024-03-08T05:03:37;46.70;;;29.52;;
313;SDS011;143;51.634;7.112;2024-03-08T05:06:04;45.33;;;26.67;;
313;SDS011;143;51.634;7.112;2024-03-08T05:08:29;47.73;;;28.10;;
313;SDS011;143;51.634;7.112;2024-03-08T05:10:55;45.93;;;28.27;;
313;SDS011;143;51.634;7.112;2024-03-08T05:13:21;47.08;;;28.92;;
313;SDS011;143;51.634;7.112;2024-03-08T05:15:48;46.70;;;29.33;;
313;SDS011;143;51.634;7.112;2024-03-08T05:18:15;49.88;;;29.10;;
313;SDS011;143;51.634;7.112;2024-03-08T05:20:40;48.03;;;30.07;;
313;SDS011;143;51.634;7.112;2024-03-08T05:23:06;47.97;;;30.00;;
313;SDS011;143;51.634;7.112;2024-03-08T05:25:33;47.35;;;28.23;;
313;SDS011;143;51.634;7.112;2024-03-08T05:27:58;47.70;;;29.60;;
313;SDS011;143;51.634;7.112;2024-03-08T05:30:24;44.07;;;27.97;;
313;SDS011;143;51.634;7.112;2024-03-08T05:32:50;48.70;;;31.37;;
313;SDS011;143;51.634;7.112;2024-03-08T05:35:15;50.93;;;29.20;;
313;SDS011;143;51.634;7.112;2024-03-08T05:37:41;44.33;;;28.90;;
313;SDS011;143;51.634;7.112;2024-03-08T05:40:10;48.95;;;30.38;;
313;SDS011;143;51.634;7.112;2024-03-08T05:42:35;50.50;;;28.20;;
313;SDS011;143;51.634;7.112;2024-03-08T05:45:01;46.83;;;28.77;;
313;SDS011;143;51.634;7.112;2024-03-08T05:47:28;48.47;;;29.60;;
313;SDS011;143;51.634;7.112;2024-03-08T05:49:53;44.33;;;27.20;;
313;SDS011;143;51.634;7.112;2024-03-08T05:52:19;57.77;;;31.07;;
313;SDS011;143;51.634;7.112;2024-03-08T05:54:45;44.63;;;28.17;;
313;SDS011;143;51.634;7.112;2024-03-08T05:57:12;50.75;;;29.23;;
313;SDS011;143;51.634;7.112;2024-03-08T05:59:38;52.83;;;30.05;;
313;SDS011;143;51.634;7.112;2024-03-08T06:02:04;56.30;;;31.80;;
313;SDS011;143;51.634;7.112;2024-03-08T06:04:30;50.77;;;31.87;;
313;SDS011;143;51.634;7.112;2024-03-08T06:06:56;52.00;;;30.90;;
313;SDS011;143;51.634;7.112;2024-03-08T06:09:23;52.38;;;32.15;;
313;SDS011;143;51.634;7.112;2024-03-08T06:11:49;50.35;;;32.50;;
313;SDS011;143;51.634;7.112;2024-03-08T06:14:15;47.33;;;29.58;;
313;SDS011;143;51.634;7.112;2024-03-08T06:16:43;49.55;;;30.17;;
313;SDS011;143;51.634;7.112;2024-03-08T06:19:10;45.05;;;29.63;;
313;SDS011;143;51.634;7.112;2024-03-08T06:21:35;53.67;;;32.70;;
313;SDS011;143;51.634;7.112;2024-03-08T06:24:01;49.93;;;30.23;;
313;SDS011;143;51.634;7.112;2024-03-08T06:26:27;43.73;;;27.60;;
313;SDS011;143;51.634;7.112;2024-03-08T06:28:55;46.88;;;30.45;;
313;SDS011;143;51.634;7.112;2024-03-08T06:31:21;49.13;;;28.93;;
313;SDS011;143;51.634;7.112;2024-03-08T06:33:47;51.13;;;30.27;;
313;SDS011;143;51.634;7.112;2024-03-08T06:36:16;51.40;;;30.55;;
313;SDS011;143;51.634;7.112;2024-03-08T06:38:43;48.88;;;29.58;;
313;SDS011;143;51.634;7.112;2024-03-08T06:41:13;53.75;;;32.45;;
313;SDS011;143;51.634;7.112;2024-03-08T06:43:41;54.22;;;31.30;;
313;SDS011;143;51.634;7.112;2024-03-08T06:46:07;48.50;;;30.92;;
313;SDS011;143;51.634;7.112;2024-03-08T06:48:33;54.00;;;31.85;;
313;SDS011;143;51.634;7.112;2024-03-08T06:51:00;49.80;;;29.92;;
313;SDS011;143;51.634;7.112;2024-03-08T06:53:25;57.03;;;31.53;;
313;SDS011;143;51.634;7.112;2024-03-08T06:55:51;46.73;;;28.20;;
313;SDS011;143;51.634;7.112;2024-03-08T06:58:16;43.07;;;28.50;;
313;SDS011;143;51.634;7.112;2024-03-08T07:00:42;60.83;;;32.43;;
313;SDS011;143;51.634;7.112;2024-03-08T07:03:09;45.08;;;29.25;;
313;SDS011;143;51.634;7.112;2024-03-08T07:05:37;51.50;;;29.98;;
313;SDS011;143;51.634;7.112;2024-03-08T07:08:04;49.60;;;29.55;;
313;SDS011;143;51.634;7.112;2024-03-08T07:10:31;51.22;;;30.98;;
313;SDS011;143;51.634;7.112;2024-03-08T07:12:56;48.53;;;28.30;;
313;SDS011;143;51.634;7.112;2024-03-08T07:15:22;46.33;;;29.10;;
313;SDS011;143;51.634;7.112;2024-03-08T07:17:48;51.53;;;30.83;;
313;SDS011;143;51.634;7.112;2024-03-08T07:20:14;52.30;;;29.60;;
313;SDS011;143;51.634;7.112;2024-03-08T07:22:43;47.25;;;29.02;;
313;SDS011;143;51.634;7.112;2024-03-08T07:25:17;50.40;;;30.00;;
313;SDS011;143;51.634;7.112;2024-03-08T07:27:52;50.92;;;30.10;;
313;SDS011;143;51.634;7.112;2024-03-08T07:30:23;48.08;;;29.05;;
313;SDS011;143;51.634;7.112;2024-03-08T07:33:08;48.53;;;28.73;;
313;SDS011;143;51.634;7.112;2024-03-08T07:35:36;56.75;;;28.88;;
313;SDS011;143;51.634;7.112;2024-03-08T07:38:06;47.50;;;27.52;;
313;SDS011;143;51.634;7.112;2024-03-08T07:40:36;49.28;;;29.63;;
313;SDS011;143;51.634;7.112;2024-03-08T07:43:05;45.72;;;28.30;;
313;SDS011;143;51.634;7.112;2024-03-08T07:45:31;63.67;;;30.48;;
313;SDS011;143;51.634;7.112;2024-03-08T07:47:57;50.90;;;26.60;;
313;SDS011;143;51.634;7.112;2024-03-08T07:50:22;48.57;;;28.20;;
313;SDS011;143;51.634;7.112;2024-03-08T07:52:48;47.87;;;27.63;;
313;SDS011;143;51.634;7.112;2024-03-08T07:55:13;50.97;;;28.47;;
313;SDS011;143;51.634;7.112;2024-03-08T07:57:39;50.05;;;27.45;;
313;SDS011;143;51.634;7.112;2024-03-08T08:00:05;48.70;;;28.20;;
313;SDS011;143;51.634;7.112;2024-03-08T08:02:33;45.83;;;26.75;;
313;SDS011;143;51.634;7.112;2024-03-08T08:05:00;44.40;;;27.20;;
313;SDS011;143;51.634;7.112;2024-03-08T08:07:26;46.27;;;27.43;;
313;SDS011;143;51.634;7.112;2024-03-08T08:09:52;41.03;;;23.80;;
313;SDS011;143;51.634;7.112;2024-03-08T08:12:18;40.93;;;24.73;;
313;SDS011;143;51.634;7.112;2024-03-08T08:14:43;47.50;;;26.03;;
313;SDS011;143;51.634;7.112;2024-03-08T08:17:09;48.87;;;26.07;;
313;SDS011;143;51.634;7.112;2024-03-08T08:19:35;48.50;;;26.93;;
313;SDS011;143;51.634;7.112;2024-03-08T08:22:01;46.00;;;25.23;;
313;SDS011;143;51.634;7.112;2024-03-08T08:24:29;46.05;;;27.30;;
313;SDS011;143;51.634;7.112;2024-03-08T08:26:55;45.80;;;24.93;;
313;SDS011;143;51.634;7.112;2024-03-08T08:29:20;43.00;;;25.40;;
313;SDS011;143;51.634;7.112;2024-03-08T08:31:47;44.97;;;24.38;;
313;SDS011;143;51.634;7.112;2024-03-08T08:34:14;38.92;;;24.10;;
313;SDS011;143;51.634;7.112;2024-03-08T08:36:41;43.95;;;24.35;;
313;SDS011;143;51.634;7.112;2024-03-08T08:39:07;40.30;;;25.03;;
313;SDS011;143;51.634;7.112;2024-03-08T08:41:38;41.77;;;23.30;;
313;SDS011;143;51.634;7.112;2024-03-08T08:44:04;44.53;;;25.83;;
313;SDS011;143;51.634;7.112;2024-03-08T08:46:34;45.20;;;25.37;;
313;SDS011;143;51.634;7.112;2024-03-08T08:49:04;40.80;;;23.67;;
313;SDS011;143;51.634;7.112;2024-03-08T08:51:30;45.63;;;24.00;;
313;SDS011;143;51.634;7.112;2024-03-08T08:53:58;46.33;;;25.53;;
313;SDS011;143;51.634;7.112;2024-03-08T08:56:23;47.33;;;23.90;;
313;SDS011;143;51.634;7.112;2024-03-08T08:58:50;40.20;;;24.03;;
313;SDS011;143;51.634;7.112;2024-03-08T09:01:16;42.97;;;24.80;;
313;SDS011;143;51.634;7.112;2024-03-08T09:03:43;45.80;;;25.17;;
313;SDS011;143;51.634;7.112;2024-03-08T09:06:11;39.67;;;24.00;;
313;SDS011;143;51.634;7.112;2024-03-08T09:08:38;45.63;;;24.63;;
313;SDS011;143;51.634;7.112;2024-03-08T09:11:04;45.30;;;23.53;;
313;SDS011;143;51.634;7.112;2024-03-08T09:13:30;40.03;;;23.67;;
313;SDS011;143;51.634;7.112;2024-03-08T09:15:58;45.50;;;24.73;;
313;SDS011;143;51.634;7.112;2024-03-08T09:18:23;40.23;;;23.97;;
313;SDS011;143;51.634;7.112;2024-03-08T09:20:49;38.33;;;22.80;;
313;SDS011;143;51.634;7.112;2024-03-08T09:23:16;40.23;;;23.50;;
313;SDS011;143;51.634;7.112;2024-03-08T09:25:44;43.87;;;23.47;;
313;SDS011;143;51.634;7.112;2024-03-08T09:28:10;45.03;;;23.80;;
313;SDS011;143;51.634;7.112;2024-03-08T09:30:37;42.50;;;22.87;;
313;SDS011;143;51.634;7.112;2024-03-08T09:33:03;39.90;;;23.27;;
313;SDS011;143;51.634;7.112;2024-03-08T09:35:29;41.93;;;23.63;;
313;SDS011;143;51.634;7.112;2024-03-08T09:37:55;39.53;;;23.73;;
313;SDS011;143;51.634;7.112;2024-03-08T09:40:21;35.30;;;21.97;;
313;SDS011;143;51.634;7.112;2024-03-08T09:42:48;37.77;;;22.97;;
313;SDS011;143;51.634;7.112;2024-03-08T09:45:14;38.40;;;21.70;;
313;SDS011;143;51.634;7.112;2024-03-08T09:47:42;34.67;;;21.87;;
313;SDS011;143;51.634;7.112;2024-03-08T09:50:09;38.60;;;21.47;;
313;SDS011;143;51.634;7.112;2024-03-08T09:52:41;36.57;;;21.17;;
313;SDS011;143;51.634;7.112;2024-03-08T09:55:08;39.20;;;22.67;;
313;SDS011;143;51.634;7.112;2024-03-08T09:57:36;31.03;;;19.07;;
313;SDS011;143;51.634;7.112;2024-03-08T10:00:03;36.57;;;20.37;;
313;SDS011;143;51.634;7.112;2024-03-08T10:02:44;42.53;;;20.83;;
313;SDS011;143;51.634;7.112;2024-03-08T10:05:11;31.90;;;19.27;;
313;SDS011;143;51.634;7.112;2024-03-08T10:07:37;35.57;;;20.70;;
313;SDS011;143;51.634;7.112;2024-03-08T10:10:03;32.40;;;19.10;;
313;SDS011;143;51.634;7.112;2024-03-08T10:12:29;34.90;;;19.27;;
313;SDS011;143;51.634;7.112;2024-03-08T10:14:56;39.30;;;21.80;;
313;SDS011;143;51.634;7.112;2024-03-08T10:17:23;31.27;;;19.50;;
313;SDS011;143;51.634;7.112;2024-03-08T10:19:49;34.50;;;20.53;;
313;SDS011;143;51.634;7.112;2024-03-08T10:22:16;40.10;;;20.23;;
313;SDS011;143;51.634;7.112;2024-03-08T10:24:44;29.13;;;18.60;;
313;SDS011;143;51.634;7.112;2024-03-08T10:27:13;34.20;;;20.80;;
313;SDS011;143;51.634;7.112;2024-03-08T10:29:41;33.37;;;18.93;;
313;SDS011;143;51.634;7.112;2024-03-08T10:32:09;38.50;;;19.07;;
313;SDS011;143;51.634;7.112;2024-03-08T10:34:35;29.40;;;18.80;;
313;SDS011;143;51.634;7.112;2024-03-08T10:37:03;36.50;;;19.53;;
313;SDS011;143;51.634;7.112;2024-03-08T10:39:30;35.30;;;20.90;;
313;SDS011;143;51.634;7.112;2024-03-08T10:42:02;31.17;;;17.83;;
313;SDS011;143;51.634;7.112;2024-03-08T10:47:01;35.77;;;20.20;;
313;SDS011;143;51.634;7.112;2024-03-08T10:49:32;33.43;;;20.83;;
313;SDS011;143;51.634;7.112;2024-03-08T10:52:04;28.97;;;18.30;;
313;SDS011;143;51.634;7.112;2024-03-08T10:54:30;33.80;;;20.47;;
313;SDS011;143;51.634;7.112;2024-03-08T10:56:57;36.90;;;20.80;;
313;SDS011;143;51.634;7.112;2024-03-08T10:59:23;36.13;;;20.00;;
313;SDS011;143;51.634;7.112;2024-03-08T11:01:49;33.70;;;19.50;;
313;SDS011;143;51.634;7.112;2024-03-08T11:04:16;34.67;;;20.87;;
313;SDS011;143;51.634;7.112;2024-03-08T11:06:45;31.60;;;19.67;;
313;SDS011;143;51.634;7.112;2024-03-08T11:09:27;36.10;;;20.57;;
313;SDS011;143;51.634;7.112;2024-03-08T11:14:46;28.40;;;17.67;;
313;SDS011;143;51.634;7.112;2024-03-08T11:17:16;34.73;;;18.90;;
313;SDS011;143;51.634;7.112;2024-03-08T11:19:52;30.27;;;17.80;;
313;SDS011;143;51.634;7.112;2024-03-08T11:22:22;30.90;;;17.77;;
313;SDS011;143;51.634;7.112;2024-03-08T11:24:51;34.57;;;19.30;;
313;SDS011;143;51.634;7.112;2024-03-08T11:27:17;32.83;;;20.23;;
313;SDS011;143;51.634;7.112;2024-03-08T11:29:45;33.30;;;19.90;;
313;SDS011;143;51.634;7.112;2024-03-08T11:32:27;36.43;;;20.83;;
313;SDS011;143;51.634;7.112;2024-03-08T11:34:54;32.23;;;18.63;;
313;SDS011;143;51.634;7.112;2024-03-08T11:37:20;33.33;;;19.33;;
313;SDS011;143;51.634;7.112;2024-03-08T11:39:46;30.10;;;18.57;;
313;SDS011;143;51.634;7.112;2024-03-08T11:42:13;34.00;;;19.83;;
313;SDS011;143;51.634;7.112;2024-03-08T11:44:39;33.00;;;20.00;;
313;SDS011;143;51.634;7.112;2024-03-08T11:47:09;34.90;;;18.10;;
313;SDS011;143;51.634;7.112;2024-03-08T11:49:39;32.87;;;20.00;;
313;SDS011;143;51.634;7.112;2024-03-08T11:52:10;30.10;;;20.03;;
313;SDS011;143;51.634;7.112;2024-03-08T11:54:38;28.50;;;17.67;;
313;SDS011;143;51.634;7.112;2024-03-08T11:57:04;28.73;;;18.03;;
313;SDS011;143;51.634;7.112;2024-03-08T11:59:29;28.00;;;18.43;;
313;SDS011;143;51.634;7.112;2024-03-08T12:02:03;33.50;;;18.80;;
313;SDS011;143;51.634;7.112;2024-03-08T12:04:34;29.07;;;18.63;;
313;SDS011;143;51.634;7.112;2024-03-08T12:07:01;34.70;;;17.87;;
313;SDS011;143;51.634;7.112;2024-03-08T12:09:30;31.00;;;17.40;;
313;SDS011;143;51.634;7.112;2024-03-08T12:11:58;27.60;;;18.17;;
313;SDS011;143;51.634;7.112;2024-03-08T12:14:24;32.23;;;20.50;;
313;SDS011;143;51.634;7.112;2024-03-08T12:16:50;25.50;;;17.27;;
313;SDS011;143;51.634;7.112;2024-03-08T12:19:17;26.13;;;16.80;;
313;SDS011;143;51.634;7.112;2024-03-08T12:21:42;25.10;;;17.20;;
313;SDS011;143;51.634;7.112;2024-03-08T12:24:14;24.83;;;16.00;;
313;SDS011;143;51.634;7.112;2024-03-08T12:26:44;30.80;;;18.00;;
313;SDS011;143;51.634;7.112;2024-03-08T12:29:17;31.97;;;17.43;;
313;SDS011;143;51.634;7.112;2024-03-08T12:31:47;31.73;;;18.47;;
313;SDS011;143;51.634;7.112;2024-03-08T12:34:15;28.33;;;17.23;;
313;SDS011;143;51.634;7.112;2024-03-08T12:36:44;25.53;;;16.03;;
313;SDS011;143;51.634;7.112;2024-03-08T12:39:12;27.37;;;17.27;;
313;SDS011;143;51.634;7.112;2024-03-08T12:41:40;27.20;;;16.80;;
313;SDS011;143;51.634;7.112;2024-03-08T12:44:06;26.83;;;16.30;;
313;SDS011;143;51.634;7.112;2024-03-08T12:46:36;27.97;;;16.70;;
313;SDS011;143;51.634;7.112;2024-03-08T12:49:05;30.70;;;16.33;;
313;SDS011;143;51.634;7.112;2024-03-08T12:51:37;31.13;;;16.93;;
313;SDS011;143;51.634;7.112;2024-03-08T12:54:04;26.90;;;16.60;;
313;SDS011;143;51.634;7.112;2024-03-08T12:56:32;29.87;;;14.57;;
313;SDS011;143;51.634;7.112;2024-03-08T12:58:59;25.33;;;14.77;;
313;SDS011;143;51.634;7.112;2024-03-08T13:01:25;24.57;;;14.47;;
313;SDS011;143;51.634;7.112;2024-03-08T13:03:52;31.40;;;14.20;;
313;SDS011;143;51.634;7.112;2024-03-08T13:06:18;22.93;;;13.63;;
313;SDS011;143;51.634;7.112;2024-03-08T13:08:49;23.70;;;14.63;;
313;SDS011;143;51.634;7.112;2024-03-08T13:11:18;23.10;;;13.30;;
313;SDS011;143;51.634;7.112;2024-03-08T13:13:45;26.30;;;12.70;;
313;SDS011;143;51.634;7.112;2024-03-08T13:16:10;32.03;;;15.10;;
313;SDS011;143;51.634;7.112;2024-03-08T13:18:39;23.80;;;13.77;;
313;SDS011;143;51.634;7.112;2024-03-08T13:21:07;20.53;;;12.17;;
313;SDS011;143;51.634;7.112;2024-03-08T13:23:34;22.13;;;13.30;;
313;SDS011;143;51.634;7.112;2024-03-08T13:26:09;25.17;;;14.13;;
313;SDS011;143;51.634;7.112;2024-03-08T13:28:40;26.10;;;12.07;;
313;SDS011;143;51.634;7.112;2024-03-08T13:31:10;24.20;;;13.13;;
313;SDS011;143;51.634;7.112;2024-03-08T13:33:36;23.13;;;14.57;;
313;SDS011;143;51.634;7.112;2024-03-08T13:36:03;27.63;;;14.27;;
313;SDS011;143;51.634;7.112;2024-03-08T13:38:31;24.60;;;13.30;;
313;SDS011;143;51.634;7.112;2024-03-08T13:40:58;22.17;;;14.60;;
313;SDS011;143;51.634;7.112;2024-03-08T13:43:23;21.30;;;13.13;;
313;SDS011;143;51.634;7.112;2024-03-08T13:45:49;21.33;;;12.77;;
313;SDS011;143;51.634;7.112;2024-03-08T13:48:15;20.87;;;13.27;;
313;SDS011;143;51.634;7.112;2024-03-08T13:50:41;26.47;;;14.50;;
313;SDS011;143;51.634;7.112;2024-03-08T13:53:06;21.27;;;14.50;;
313;SDS011;143;51.634;7.112;2024-03-08T13:55:32;24.57;;;14.00;;
313;SDS011;143;51.634;7.112;2024-03-08T13:57:58;23.47;;;14.13;;
313;SDS011;143;51.634;7.112;2024-03-08T14:00:24;25.50;;;15.07;;
313;SDS011;143;51.634;7.112;2024-03-08T14:02:52;25.63;;;16.17;;
313;SDS011;143;51.634;7.112;2024-03-08T14:05:19;22.50;;;14.67;;
313;SDS011;143;51.634;7.112;2024-03-08T14:07:44;19.97;;;13.50;;
313;SDS011;143;51.634;7.112;2024-03-08T14:10:13;30.27;;;17.20;;
313;SDS011;143;51.634;7.112;2024-03-08T14:12:39;23.60;;;15.37;;
313;SDS011;143;51.634;7.112;2024-03-08T14:15:05;31.47;;;17.03;;
313;SDS011;143;51.634;7.112;2024-03-08T14:17:32;28.60;;;15.80;;
313;SDS011;143;51.634;7.112;2024-03-08T14:19:58;24.37;;;16.10;;
313;SDS011;143;51.634;7.112;2024-03-08T14:22:24;26.33;;;15.83;;
313;SDS011;143;51.634;7.112;2024-03-08T14:24:49;25.10;;;16.10;;
313;SDS011;143;51.634;7.112;2024-03-08T14:27:16;26.87;;;15.93;;
313;SDS011;143;51.634;7.112;2024-03-08T14:29:43;31.30;;;16.37;;
313;SDS011;143;51.634;7.112;2024-03-08T14:32:09;34.07;;;17.33;;
313;SDS011;143;51.634;7.112;2024-03-08T14:34:35;27.30;;;15.30;;
313;SDS011;143;51.634;7.112;2024-03-08T14:37:01;24.97;;;15.70;;
313;SDS011;143;51.634;7.112;2024-03-08T14:39:30;25.97;;;17.40;;
313;SDS011;143;51.634;7.112;2024-03-08T14:41:58;25.53;;;17.00;;
313;SDS011;143;51.634;7.112;2024-03-08T14:44:25;26.37;;;15.63;;
313;SDS011;143;51.634;7.112;2024-03-08T14:46:52;27.40;;;17.27;;
313;SDS011;143;51.634;7.112;2024-03-08T14:49:17;29.57;;;17.60;;
313;SDS011;143;51.634;7.112;2024-03-08T14:51:44;30.17;;;17.93;;
313;SDS011;143;51.634;7.112;2024-03-08T14:54:09;33.70;;;17.90;;
313;SDS011;143;51.634;7.112;2024-03-08T14:56:35;29.30;;;18.00;;
313;SDS011;143;51.634;7.112;2024-03-08T14:59:01;28.07;;;17.10;;
313;SDS011;143;51.634;7.112;2024-03-08T15:01:29;27.20;;;16.67;;
313;SDS011;143;51.634;7.112;2024-03-08T15:03:57;24.93;;;16.10;;
313;SDS011;143;51.634;7.112;2024-03-08T15:06:28;27.83;;;17.13;;
313;SDS011;143;51.634;7.112;2024-03-08T15:08:56;26.27;;;15.80;;
313;SDS011;143;51.634;7.112;2024-03-08T15:11:22;28.40;;;16.80;;
313;SDS011;143;51.634;7.112;2024-03-08T15:13:50;37.80;;;18.57;;
313;SDS011;143;51.634;7.112;2024-03-08T15:16:19;31.67;;;19.23;;
313;SDS011;143;51.634;7.112;2024-03-08T15:18:48;28.70;;;17.10;;